Time;durP1;ratioP1;P1;durP2;ratioP2;P2;SDS_P1;SDS_P2;PMS_P1;PMS_P2;Temp;Humidity;BMP_temperature;BMP_pressure;BME280_temperature;BME280_humidity;BME280_pressure;Samples;Min_cycle;Max_cycle;Signal;HPM_P1;HPM_P2
2022/06/18 00:00:42;;;;;;;;;;;20.40;99.90;;;;;;5114357;28;19920;-68
2022/06/18 00:03:09;;;;;;;;;;;20.40;99.90;;;;;;5114352;28;20411;-67
2022/06/18 00:05:35;;;;;;;;;;;20.40;99.90;;;;;;5114317;28;19920;-67
2022/06/18 00:08:01;;;;;;;;;;;20.30;99.90;;;;;;5112880;28;19919;-67
2022/06/18 00:10:28;;;;;;;;;;;20.20;99.90;;;;;;5113626;28;19919;-67
2022/06/18 00:15:38;;;;;;;;;;;20.20;99.90;;;;;;5114143;28;20306;-67
2022/06/18 00:18:10;;;;;;;;;;;20.20;99.90;;;;;;5112819;28;19924;-67
2022/06/18 00:20:35;;;;;;;;;;;20.30;99.90;;;;;;5113623;28;19920;-67
2022/06/18 00:23:02;;;;;;;;;;;20.20;99.90;;;;;;5113686;28;19964;-68
2022/06/18 00:25:31;;;;;;;;;;;20.20;99.90;;;;;;5113781;28;20441;-67
2022/06/18 00:27:56;;;;;;;;;;;20.20;99.90;;;;;;5113914;28;19919;-67
2022/06/18 00:30:23;;;;;;;;;;;20.20;99.90;;;;;;5112883;28;19927;-67
2022/06/18 00:32:49;;;;;;;;;;;20.20;99.90;;;;;;5113616;28;19927;-67
2022/06/18 00:35:15;;;;;;;;;;;20.20;99.90;;;;;;5113464;28;20306;-67
2022/06/18 00:37:41;;;;;;;;;;;20.20;99.90;;;;;;5113528;28;19920;-66
2022/06/18 00:40:12;;;;;;;;;;;20.10;99.90;;;;;;5113406;28;19926;-67
2022/06/18 00:42:38;;;;;;;;;;;20.10;99.90;;;;;;5113599;28;19980;-67
2022/06/18 00:45:04;;;;;;;;;;;20.00;99.90;;;;;;5113478;28;20368;-67
2022/06/18 00:47:33;;;;;;;;;;;20.00;99.90;;;;;;5113445;28;19920;-68
2022/06/18 00:50:01;;;;;;;;;;;19.90;99.90;;;;;;5112937;28;19926;-67
2022/06/18 00:52:30;;;;;;;;;;;20.00;99.90;;;;;;5111703;28;19924;-68
2022/06/18 00:55:01;;;;;;;;;;;20.00;99.90;;;;;;5113285;28;19919;-68
2022/06/18 00:57:28;;;;;;;;;;;19.90;99.90;;;;;;5112389;28;19927;-67
2022/06/18 00:59:59;;;;;;;;;;;20.00;99.90;;;;;;5112964;28;19924;-68
2022/06/18 01:02:30;;;;;;;;;;;19.90;99.90;;;;;;5113220;28;19923;-67
2022/06/18 01:04:55;;;;;;;;;;;19.90;99.90;;;;;;5113247;28;20119;-68
2022/06/18 01:07:21;;;;;;;;;;;19.90;99.90;;;;;;5111951;28;19927;-67
2022/06/18 01:09:47;;;;;;;;;;;19.80;99.90;;;;;;5112723;28;19920;-67
2022/06/18 01:12:13;;;;;;;;;;;19.70;99.90;;;;;;5112840;28;19963;-67
2022/06/18 01:14:38;;;;;;;;;;;19.80;99.90;;;;;;5112756;28;19932;-67
2022/06/18 01:17:04;;;;;;;;;;;19.80;99.90;;;;;;5112630;28;20003;-67
2022/06/18 01:19:32;;;;;;;;;;;19.60;99.90;;;;;;5112742;28;20462;-68
2022/06/18 01:22:06;;;;;;;;;;;19.70;99.90;;;;;;5111077;28;19926;-67
2022/06/18 01:24:34;;;;;;;;;;;19.80;99.90;;;;;;5111523;28;20024;-67
2022/06/18 01:27:00;;;;;;;;;;;19.80;99.90;;;;;;5112674;28;20002;-68
2022/06/18 01:29:25;;;;;;;;;;;19.90;99.90;;;;;;5112345;28;20387;-67
2022/06/18 01:31:51;;;;;;;;;;;19.80;99.90;;;;;;5112277;28;19924;-67
2022/06/18 01:34:16;;;;;;;;;;;19.70;99.90;;;;;;5112562;28;20010;-68
2022/06/18 01:36:42;;;;;;;;;;;19.70;99.90;;;;;;5112608;28;19920;-68
2022/06/18 01:39:09;;;;;;;;;;;19.70;99.90;;;;;;5112138;28;19919;-67
2022/06/18 01:41:52;;;;;;;;;;;19.70;99.90;;;;;;5111472;28;19973;-67
2022/06/18 01:44:23;;;;;;;;;;;19.70;99.90;;;;;;5112166;28;20277;-67
2022/06/18 01:46:50;;;;;;;;;;;19.80;99.90;;;;;;5111115;28;19924;-67
2022/06/18 01:49:18;;;;;;;;;;;19.80;99.90;;;;;;5112130;28;20008;-66
2022/06/18 01:51:47;;;;;;;;;;;19.80;99.90;;;;;;5112174;28;20392;-67
2022/06/18 01:54:16;;;;;;;;;;;19.80;99.90;;;;;;5112084;28;20135;-67
2022/06/18 01:56:44;;;;;;;;;;;19.80;99.90;;;;;;5111987;28;20018;-67
2022/06/18 01:59:15;;;;;;;;;;;19.80;99.90;;;;;;5110504;28;19930;-67
2022/06/18 02:01:42;;;;;;;;;;;19.70;99.90;;;;;;5110831;28;19965;-67
2022/06/18 02:04:08;;;;;;;;;;;19.70;99.90;;;;;;5111976;28;19924;-67
2022/06/18 02:06:34;;;;;;;;;;;19.70;99.90;;;;;;5112045;28;19924;-68
2022/06/18 02:09:01;;;;;;;;;;;19.70;99.90;;;;;;5111637;28;19973;-67
2022/06/18 02:11:27;;;;;;;;;;;19.70;99.90;;;;;;5111838;28;20414;-67
2022/06/18 02:14:00;;;;;;;;;;;19.60;99.90;;;;;;5111760;28;19923;-67
2022/06/18 02:16:27;;;;;;;;;;;19.60;99.90;;;;;;5111722;28;19920;-67
2022/06/18 02:18:52;;;;;;;;;;;19.70;99.90;;;;;;5111664;28;19919;-67
2022/06/18 02:21:22;;;;;;;;;;;19.60;99.90;;;;;;5111861;28;19983;-67
2022/06/18 02:23:50;;;;;;;;;;;19.50;99.90;;;;;;5111795;28;20292;-67
2022/06/18 02:26:15;;;;;;;;;;;19.60;99.90;;;;;;5111993;28;19920;-67
2022/06/18 02:28:42;;;;;;;;;;;19.60;99.90;;;;;;5093645;28;19920;-67
2022/06/18 02:31:12;;;;;;;;;;;19.50;99.90;;;;;;5111814;28;19931;-68
2022/06/18 02:33:39;;;;;;;;;;;19.60;99.90;;;;;;5111711;28;20006;-66
2022/06/18 02:36:11;;;;;;;;;;;19.50;99.90;;;;;;5111642;28;19920;-67
2022/06/18 02:38:36;;;;;;;;;;;19.50;99.90;;;;;;5111524;28;19955;-67
2022/06/18 02:41:02;;;;;;;;;;;19.40;99.90;;;;;;5111705;28;20364;-67
2022/06/18 02:43:27;;;;;;;;;;;19.40;99.90;;;;;;5111681;28;20004;-67
2022/06/18 02:45:54;;;;;;;;;;;19.30;99.90;;;;;;5111603;28;19930;-67
2022/06/18 02:48:22;;;;;;;;;;;19.40;99.90;;;;;;5111445;28;20384;-68
2022/06/18 02:50:48;;;;;;;;;;;19.30;99.90;;;;;;5111177;28;19920;-67
2022/06/18 02:53:14;;;;;;;;;;;19.30;99.90;;;;;;5114292;28;19930;-67
2022/06/18 02:55:44;;;;;;;;;;;19.20;99.90;;;;;;5115741;28;19920;-67
2022/06/18 02:58:20;;;;;;;;;;;19.20;99.90;;;;;;5115458;28;19919;-67
2022/06/18 03:00:51;;;;;;;;;;;19.20;99.90;;;;;;5115374;28;19923;-66
2022/06/18 03:03:17;;;;;;;;;;;19.20;99.90;;;;;;5113942;28;19919;-67
2022/06/18 03:05:43;;;;;;;;;;;19.20;99.90;;;;;;5113553;28;20007;-66
2022/06/18 03:08:08;;;;;;;;;;;19.30;99.90;;;;;;5112139;28;20007;-67
2022/06/18 03:13:18;;;;;;;;;;;19.20;99.90;;;;;;5113455;28;20014;-67
2022/06/18 03:15:48;;;;;;;;;;;19.20;99.90;;;;;;5115079;27;20014;-67
2022/06/18 03:18:14;;;;;;;;;;;19.20;99.90;;;;;;5114665;28;19920;-67
2022/06/18 03:20:50;;;;;;;;;;;19.20;99.90;;;;;;5113823;28;20410;-66
2022/06/18 03:23:17;;;;;;;;;;;19.10;99.90;;;;;;5113900;28;19980;-67
2022/06/18 03:25:43;;;;;;;;;;;19.10;99.90;;;;;;5114971;28;19923;-67
2022/06/18 03:28:11;;;;;;;;;;;19.10;99.90;;;;;;5114907;28;20433;-67
2022/06/18 03:30:39;;;;;;;;;;;19.10;99.90;;;;;;5114372;28;19920;-67
2022/06/18 03:33:05;;;;;;;;;;;19.10;99.90;;;;;;5114955;28;19932;-67
2022/06/18 03:35:30;;;;;;;;;;;19.10;99.90;;;;;;5114814;28;19988;-67
2022/06/18 03:37:56;;;;;;;;;;;19.20;99.90;;;;;;5114805;28;20276;-67
2022/06/18 03:40:22;;;;;;;;;;;19.10;99.90;;;;;;5114457;28;20014;-67
2022/06/18 03:42:47;;;;;;;;;;;19.20;99.90;;;;;;5114652;28;19919;-67
2022/06/18 03:45:13;;;;;;;;;;;19.20;99.90;;;;;;5114444;28;19973;-67
2022/06/18 03:47:38;;;;;;;;;;;19.20;99.90;;;;;;5114735;28;19930;-67
2022/06/18 03:50:04;;;;;;;;;;;19.20;99.90;;;;;;5114495;28;20355;-67
2022/06/18 03:52:30;;;;;;;;;;;19.30;99.90;;;;;;5114438;28;19924;-67
2022/06/18 03:54:56;;;;;;;;;;;19.40;99.90;;;;;;5114263;27;19920;-67
2022/06/18 03:57:21;;;;;;;;;;;19.40;99.90;;;;;;5114392;28;19919;-67
2022/06/18 03:59:46;;;;;;;;;;;19.40;99.90;;;;;;5113846;28;20340;-67
2022/06/18 04:02:13;;;;;;;;;;;19.50;99.90;;;;;;5114459;28;19931;-67
2022/06/18 04:04:40;;;;;;;;;;;19.50;99.90;;;;;;5111264;28;21372;-67
2022/06/18 04:07:05;;;;;;;;;;;19.60;99.90;;;;;;5114270;28;20306;-67
2022/06/18 04:09:31;;;;;;;;;;;19.50;99.90;;;;;;5113917;28;20400;-67
2022/06/18 04:11:57;;;;;;;;;;;19.70;99.90;;;;;;5113957;28;19924;-67
2022/06/18 04:14:22;;;;;;;;;;;19.70;99.90;;;;;;5113773;28;20014;-68
2022/06/18 04:16:47;;;;;;;;;;;19.70;99.90;;;;;;5112620;28;19927;-67
2022/06/18 04:19:13;;;;;;;;;;;19.70;99.90;;;;;;5113569;28;20377;-67
2022/06/18 04:21:38;;;;;;;;;;;19.90;99.90;;;;;;5113945;28;19930;-68
2022/06/18 04:24:04;;;;;;;;;;;19.90;99.90;;;;;;5113857;28;19924;-68
2022/06/18 04:26:30;;;;;;;;;;;20.00;99.90;;;;;;5113760;28;19988;-67
2022/06/18 04:28:55;;;;;;;;;;;20.00;99.90;;;;;;5113333;28;19927;-67
2022/06/18 04:31:21;;;;;;;;;;;20.10;99.90;;;;;;5112270;28;19923;-67
2022/06/18 04:33:46;;;;;;;;;;;20.20;99.90;;;;;;5113439;28;19919;-68
2022/06/18 04:36:31;;;;;;;;;;;20.20;99.90;;;;;;5113620;28;19972;-67
2022/06/18 04:38:57;;;;;;;;;;;20.30;99.90;;;;;;5113305;28;19927;-68
2022/06/18 04:41:22;;;;;;;;;;;20.40;99.90;;;;;;5113444;28;19982;-68
2022/06/18 04:43:48;;;;;;;;;;;20.40;99.90;;;;;;5113518;28;20039;-68
2022/06/18 04:46:13;;;;;;;;;;;20.40;99.90;;;;;;5113525;28;19938;-67
2022/06/18 04:48:39;;;;;;;;;;;20.50;99.90;;;;;;5112991;28;20014;-67
2022/06/18 04:51:04;;;;;;;;;;;20.50;99.90;;;;;;5111902;28;19978;-67
2022/06/18 04:53:30;;;;;;;;;;;20.60;99.90;;;;;;5113159;28;19920;-67
2022/06/18 04:55:55;;;;;;;;;;;20.70;99.90;;;;;;5111786;28;19919;-67
2022/06/18 04:58:21;;;;;;;;;;;20.70;99.90;;;;;;5112858;28;19924;-68
2022/06/18 05:00:46;;;;;;;;;;;20.70;99.90;;;;;;5112854;28;19967;-67
2022/06/18 05:03:15;;;;;;;;;;;20.90;99.90;;;;;;5113003;28;19959;-67
2022/06/18 05:05:40;;;;;;;;;;;20.90;99.90;;;;;;5113022;28;19920;-67
2022/06/18 05:08:06;;;;;;;;;;;21.00;99.90;;;;;;5112961;28;20014;-67
2022/06/18 05:10:31;;;;;;;;;;;21.10;99.90;;;;;;5112653;28;19920;-68
2022/06/18 05:12:57;;;;;;;;;;;21.20;99.90;;;;;;5112690;28;20039;-67
2022/06/18 05:15:22;;;;;;;;;;;21.30;99.90;;;;;;5112726;28;19923;-67
2022/06/18 05:17:48;;;;;;;;;;;21.30;99.90;;;;;;5112827;28;19920;-68
2022/06/18 05:20:15;;;;;;;;;;;21.30;99.90;;;;;;5112479;28;19923;-68
2022/06/18 05:22:41;;;;;;;;;;;21.40;99.90;;;;;;5112626;28;19920;-67
2022/06/18 05:25:07;;;;;;;;;;;21.40;99.90;;;;;;5112420;28;20006;-67
2022/06/18 05:27:34;;;;;;;;;;;21.50;99.90;;;;;;5112779;28;20050;-67
2022/06/18 05:29:59;;;;;;;;;;;21.60;99.90;;;;;;5112164;28;20420;-67
2022/06/18 05:32:25;;;;;;;;;;;21.70;99.90;;;;;;5112567;28;19975;-67
2022/06/18 05:34:51;;;;;;;;;;;21.60;99.90;;;;;;5112485;28;19926;-67
2022/06/18 05:37:20;;;;;;;;;;;21.60;99.90;;;;;;5111277;28;19956;-67
2022/06/18 05:39:46;;;;;;;;;;;21.80;99.90;;;;;;5112059;28;19927;-68
2022/06/18 05:42:11;;;;;;;;;;;21.70;99.90;;;;;;5112498;28;19919;-67
2022/06/18 05:44:37;;;;;;;;;;;21.80;99.90;;;;;;5111142;28;20271;-67
2022/06/18 05:47:13;;;;;;;;;;;21.80;99.90;;;;;;5112375;28;20007;-67
2022/06/18 05:49:39;;;;;;;;;;;21.90;99.90;;;;;;5112335;28;20353;-68
2022/06/18 05:52:05;;;;;;;;;;;22.00;99.90;;;;;;5112082;28;19924;-67
2022/06/18 05:54:30;;;;;;;;;;;22.10;99.90;;;;;;5112368;28;19919;-68
2022/06/18 05:56:56;;;;;;;;;;;22.20;99.90;;;;;;5112264;28;20018;-67
2022/06/18 05:59:21;;;;;;;;;;;22.20;99.90;;;;;;5111945;28;19926;-67
2022/06/18 06:01:46;;;;;;;;;;;22.20;99.90;;;;;;5112171;28;20388;-68
2022/06/18 06:04:12;;;;;;;;;;;22.40;99.90;;;;;;5112388;28;19924;-67
2022/06/18 06:06:37;;;;;;;;;;;22.40;99.90;;;;;;5111926;28;19964;-67
2022/06/18 06:09:04;;;;;;;;;;;22.40;99.90;;;;;;5111751;28;19927;-67
2022/06/18 06:11:29;;;;;;;;;;;22.30;99.90;;;;;;5111731;28;20396;-68
2022/06/18 06:13:55;;;;;;;;;;;22.50;99.90;;;;;;5111940;28;19927;-68
2022/06/18 06:16:21;;;;;;;;;;;22.60;99.90;;;;;;5111997;28;20352;-68
2022/06/18 06:18:47;;;;;;;;;;;22.60;99.90;;;;;;5111552;28;19966;-67
2022/06/18 06:21:12;;;;;;;;;;;22.60;99.90;;;;;;5110438;28;19920;-67
2022/06/18 06:23:38;;;;;;;;;;;22.70;99.90;;;;;;5111837;28;19919;-67
2022/06/18 06:26:09;;;;;;;;;;;22.50;99.90;;;;;;5111817;28;20441;-67
2022/06/18 06:28:35;;;;;;;;;;;22.60;99.90;;;;;;5111067;28;20396;-68
2022/06/18 06:31:00;;;;;;;;;;;22.60;99.90;;;;;;5111677;28;19923;-67
2022/06/18 06:33:26;;;;;;;;;;;22.70;99.90;;;;;;5111535;28;19924;-67
2022/06/18 06:35:52;;;;;;;;;;;22.70;99.90;;;;;;5111531;28;20004;-68
2022/06/18 06:38:18;;;;;;;;;;;22.60;99.90;;;;;;5111747;28;19919;-68
2022/06/18 06:40:44;;;;;;;;;;;22.80;99.90;;;;;;5111588;28;20475;-67
2022/06/18 06:43:13;;;;;;;;;;;22.80;99.90;;;;;;5111486;28;20296;-68
2022/06/18 06:45:38;;;;;;;;;;;22.90;99.90;;;;;;5111577;28;19920;-67
2022/06/18 06:48:04;;;;;;;;;;;23.00;99.90;;;;;;5110132;28;19992;-68
2022/06/18 06:50:30;;;;;;;;;;;22.90;99.90;;;;;;5111123;28;19924;-68
2022/06/18 06:52:56;;;;;;;;;;;23.00;99.90;;;;;;5111696;28;19928;-68
2022/06/18 06:58:07;;;;;;;;;;;23.10;99.90;;;;;;5111360;28;19920;-67
2022/06/18 07:00:33;;;;;;;;;;;23.10;99.90;;;;;;5111145;28;19924;-68
2022/06/18 07:02:59;;;;;;;;;;;23.30;99.90;;;;;;5111363;28;20007;-67
2022/06/18 07:05:24;;;;;;;;;;;23.20;99.90;;;;;;5111449;28;20400;-68
2022/06/18 07:07:50;;;;;;;;;;;23.20;99.90;;;;;;5111516;28;20299;-68
2022/06/18 07:10:16;;;;;;;;;;;23.10;99.90;;;;;;5111154;28;19942;-67
2022/06/18 07:12:42;;;;;;;;;;;23.20;99.90;;;;;;5111333;28;19928;-68
2022/06/18 07:15:08;;;;;;;;;;;23.40;99.90;;;;;;5111331;28;20452;-67
2022/06/18 07:17:34;;;;;;;;;;;23.30;99.90;;;;;;5111246;28;19996;-67
2022/06/18 07:19:59;;;;;;;;;;;23.40;99.90;;;;;;5111184;28;20020;-67
2022/06/18 07:22:25;;;;;;;;;;;23.60;99.90;;;;;;5111360;28;19919;-67
2022/06/18 07:24:50;;;;;;;;;;;23.60;99.90;;;;;;5111137;28;19920;-68
2022/06/18 07:27:16;;;;;;;;;;;23.50;99.90;;;;;;5111273;28;19935;-67
2022/06/18 07:29:41;;;;;;;;;;;23.60;99.90;;;;;;5110866;28;20402;-68
2022/06/18 07:32:17;;;;;;;;;;;23.80;99.90;;;;;;5110970;28;19924;-68
2022/06/18 07:34:44;;;;;;;;;;;23.60;99.90;;;;;;5109979;28;20280;-68
2022/06/18 07:37:09;;;;;;;;;;;23.60;99.90;;;;;;5110114;28;19924;-67
2022/06/18 07:39:35;;;;;;;;;;;23.70;99.90;;;;;;5112435;28;20435;-68
2022/06/18 07:42:01;;;;;;;;;;;23.70;99.90;;;;;;5114675;28;19959;-67
2022/06/18 07:44:26;;;;;;;;;;;23.70;99.90;;;;;;5114596;28;19919;-67
2022/06/18 07:46:52;;;;;;;;;;;23.90;99.90;;;;;;5114580;28;20276;-67
2022/06/18 07:49:18;;;;;;;;;;;23.90;99.90;;;;;;5114425;28;19993;-67
2022/06/18 07:51:44;;;;;;;;;;;23.80;99.90;;;;;;5114534;28;19967;-68
2022/06/18 07:54:13;;;;;;;;;;;23.90;99.90;;;;;;5114379;28;19930;-67
2022/06/18 07:56:38;;;;;;;;;;;24.00;99.90;;;;;;5113451;28;20276;-67
2022/06/18 07:59:04;;;;;;;;;;;23.90;99.90;;;;;;5114031;28;19931;-67
2022/06/18 08:01:29;;;;;;;;;;;23.90;99.90;;;;;;5114198;28;20014;-68
2022/06/18 08:03:55;;;;;;;;;;;23.90;99.90;;;;;;5114348;28;19923;-67
2022/06/18 08:06:20;;;;;;;;;;;23.90;99.90;;;;;;5114356;28;20384;-68
2022/06/18 08:08:46;;;;;;;;;;;24.10;99.90;;;;;;5112471;28;19924;-68
2022/06/18 08:11:13;;;;;;;;;;;24.00;99.90;;;;;;5114046;28;20337;-68
2022/06/18 08:13:38;;;;;;;;;;;24.20;99.90;;;;;;5113970;28;20280;-67
2022/06/18 08:16:04;;;;;;;;;;;24.30;99.90;;;;;;5112681;28;19931;-68
2022/06/18 08:18:30;;;;;;;;;;;24.10;99.90;;;;;;5113669;28;19927;-67
2022/06/18 08:21:05;;;;;;;;;;;24.20;99.90;;;;;;5112800;28;19920;-67
2022/06/18 08:23:30;;;;;;;;;;;24.40;99.90;;;;;;5113819;28;19927;-68
2022/06/18 08:25:56;;;;;;;;;;;24.30;99.90;;;;;;5113843;28;20315;-68
2022/06/18 08:28:21;;;;;;;;;;;24.30;99.90;;;;;;5113738;27;20360;-67
2022/06/18 08:30:47;;;;;;;;;;;24.40;99.90;;;;;;5113691;28;19973;-67
2022/06/18 08:33:12;;;;;;;;;;;24.40;99.90;;;;;;5113775;28;19930;-68
2022/06/18 08:35:38;;;;;;;;;;;24.50;99.90;;;;;;5113710;28;20376;-67
2022/06/18 08:38:05;;;;;;;;;;;24.50;99.90;;;;;;5112315;28;19962;-67
2022/06/18 08:40:44;;;;;;;;;;;24.70;99.90;;;;;;5113367;28;19920;-67
2022/06/18 08:43:30;;;;;;;;;;;24.70;99.90;;;;;;5113651;28;20362;-67
2022/06/18 08:45:58;;;;;;;;;;;24.90;99.90;;;;;;5098928;28;20280;-67
2022/06/18 08:48:44;;;;;;;;;;;24.80;99.90;;;;;;5113352;28;19924;-67
2022/06/18 08:51:26;;;;;;;;;;;24.70;99.90;;;;;;5112727;28;20043;-68
2022/06/18 08:53:55;;;;;;;;;;;24.70;99.90;;;;;;5113394;28;20008;-68
2022/06/18 08:56:28;;;;;;;;;;;25.10;99.90;;;;;;5113357;28;20303;-67
2022/06/18 08:59:01;;;;;;;;;;;25.00;99.90;;;;;;5112828;28;19924;-68
2022/06/18 09:01:29;;;;;;;;;;;24.70;99.90;;;;;;5113138;28;19920;-68
2022/06/18 09:04:15;;;;;;;;;;;24.90;99.90;;;;;;5113155;28;19972;-68
2022/06/18 09:07:00;;;;;;;;;;;25.00;99.90;;;;;;5070813;28;19919;-67
2022/06/18 09:09:51;;;;;;;;;;;24.90;99.90;;;;;;5112786;28;19953;-68
2022/06/18 09:12:20;;;;;;;;;;;24.90;99.90;;;;;;5113136;28;20035;-67
2022/06/18 09:15:21;;;;;;;;;;;25.00;99.90;;;;;;5112934;28;19941;-67
2022/06/18 09:17:59;;;;;;;;;;;25.10;99.90;;;;;;5029901;28;20353;-67
2022/06/18 09:20:24;;;;;;;;;;;25.20;99.90;;;;;;5102107;28;19924;-67
2022/06/18 09:22:52;;;;;;;;;;;25.20;99.90;;;;;;5112755;28;19920;-67
2022/06/18 09:25:18;;;;;;;;;;;25.30;99.90;;;;;;5111260;28;19958;-68
2022/06/18 09:28:04;;;;;;;;;;;25.40;99.90;;;;;;5112630;28;20652;-68
2022/06/18 09:30:47;;;;;;;;;;;25.40;99.90;;;;;;5112518;28;19977;-68
2022/06/18 09:33:22;;;;;;;;;;;25.50;99.90;;;;;;5112549;28;19934;-67
2022/06/18 09:35:50;;;;;;;;;;;25.30;99.90;;;;;;5112782;27;20331;-67
2022/06/18 09:38:39;;;;;;;;;;;25.50;99.90;;;;;;5112664;28;19920;-69
2022/06/18 09:41:06;;;;;;;;;;;25.50;99.90;;;;;;5101488;28;19923;-68
2022/06/18 09:43:45;;;;;;;;;;;25.60;99.90;;;;;;5111036;28;20414;-68
2022/06/18 09:46:34;;;;;;;;;;;25.70;99.90;;;;;;5112495;28;19976;-68
2022/06/18 09:48:59;;;;;;;;;;;25.70;99.90;;;;;;5110754;28;19923;-67
2022/06/18 09:51:30;;;;;;;;;;;25.90;99.90;;;;;;5112084;28;19924;-67
2022/06/18 09:54:03;;;;;;;;;;;26.00;99.90;;;;;;5110744;28;19919;-68
2022/06/18 09:56:55;;;;;;;;;;;25.90;99.90;;;;;;5112383;28;19926;-68
2022/06/18 09:59:23;;;;;;;;;;;25.70;99.90;;;;;;5107630;28;20314;-68
2022/06/18 10:01:53;;;;;;;;;;;25.70;99.90;;;;;;5111270;28;19920;-67
2022/06/18 10:07:08;;;;;;;;;;;25.90;99.90;;;;;;5112091;28;20028;-67
2022/06/18 10:09:40;;;;;;;;;;;26.00;99.90;;;;;;5111785;28;20538;-68
2022/06/18 10:12:18;;;;;;;;;;;26.10;99.90;;;;;;5111839;28;20164;-67
2022/06/18 10:14:43;;;;;;;;;;;26.10;99.90;;;;;;5111729;28;20276;-68
2022/06/18 10:17:11;;;;;;;;;;;26.30;99.90;;;;;;5111949;28;19937;-68
2022/06/18 10:19:51;;;;;;;;;;;26.40;99.90;;;;;;5111599;28;19922;-68
2022/06/18 10:22:19;;;;;;;;;;;26.30;99.90;;;;;;5111812;28;19920;-67
2022/06/18 10:24:51;;;;;;;;;;;26.30;99.90;;;;;;5110322;28;19927;-68
2022/06/18 10:27:35;;;;;;;;;;;26.10;99.90;;;;;;5111677;28;19966;-67
2022/06/18 10:30:05;;;;;;;;;;;26.20;99.90;;;;;;5111482;28;19927;-67
2022/06/18 10:32:49;;;;;;;;;;;26.00;99.90;;;;;;5111655;28;19943;-68
2022/06/18 10:35:19;;;;;;;;;;;26.10;99.90;;;;;;5111446;28;20020;-68
2022/06/18 10:37:57;;;;;;;;;;;26.10;99.90;;;;;;5111923;28;19931;-67
2022/06/18 10:40:33;;;;;;;;;;;26.20;99.90;;;;;;5111363;28;20383;-68
2022/06/18 10:43:07;;;;;;;;;;;26.20;99.90;;;;;;5111739;28;19920;-67
2022/06/18 10:45:47;;;;;;;;;;;26.40;99.90;;;;;;5111699;28;19924;-68
2022/06/18 10:48:14;;;;;;;;;;;26.20;99.90;;;;;;5111834;28;19972;-67
2022/06/18 10:50:44;;;;;;;;;;;26.20;99.90;;;;;;5111286;28;19924;-69
2022/06/18 10:53:11;;;;;;;;;;;26.50;99.90;;;;;;5111891;28;19927;-68
2022/06/18 10:55:37;;;;;;;;;;;26.50;99.90;;;;;;5111954;28;20326;-68
2022/06/18 10:58:10;;;;;;;;;;;26.70;99.90;;;;;;5111820;28;19920;-68
2022/06/18 11:00:36;;;;;;;;;;;26.60;99.90;;;;;;5111548;28;20404;-68
2022/06/18 11:03:03;;;;;;;;;;;26.60;99.90;;;;;;5111466;28;19928;-68
2022/06/18 11:05:30;;;;;;;;;;;26.70;99.90;;;;;;5111463;28;20024;-67
2022/06/18 11:07:59;;;;;;;;;;;26.80;99.90;;;;;;5111319;28;20383;-68
2022/06/18 11:10:43;;;;;;;;;;;26.70;99.90;;;;;;5111160;28;19924;-68
2022/06/18 11:13:19;;;;;;;;;;;26.40;99.90;;;;;;5112243;28;19946;-67
2022/06/18 11:15:45;;;;;;;;;;;26.60;99.90;;;;;;5115222;28;19924;-67
2022/06/18 11:18:13;;;;;;;;;;;26.60;99.90;;;;;;5115222;28;19942;-67
2022/06/18 11:20:39;;;;;;;;;;;26.50;99.90;;;;;;5114980;28;19974;-68
2022/06/18 11:23:16;;;;;;;;;;;26.60;99.90;;;;;;5115004;28;19923;-67
2022/06/18 11:25:41;;;;;;;;;;;26.50;99.90;;;;;;5115400;28;20334;-67
2022/06/18 11:28:28;;;;;;;;;;;26.50;99.90;;;;;;5115209;28;19950;-68
2022/06/18 11:30:54;;;;;;;;;;;26.70;99.90;;;;;;5113572;28;20002;-67
2022/06/18 11:33:23;;;;;;;;;;;26.70;99.90;;;;;;5114808;28;19930;-67
2022/06/18 11:35:50;;;;;;;;;;;26.80;99.90;;;;;;5114631;28;20368;-68
2022/06/18 11:38:22;;;;;;;;;;;26.50;99.90;;;;;;5114762;28;19973;-68
2022/06/18 11:40:53;;;;;;;;;;;26.70;99.90;;;;;;5114770;28;19983;-67
2022/06/18 11:43:40;;;;;;;;;;;26.50;99.90;;;;;;5114670;28;20014;-67
2022/06/18 11:46:08;;;;;;;;;;;26.70;99.90;;;;;;5114598;28;19920;-68
2022/06/18 11:48:38;;;;;;;;;;;26.40;99.90;;;;;;5114244;27;19920;-68
2022/06/18 11:51:07;;;;;;;;;;;26.50;99.90;;;;;;5115246;28;19927;-67
2022/06/18 11:53:46;;;;;;;;;;;26.70;99.90;;;;;;5114554;28;20298;-67
2022/06/18 11:56:26;;;;;;;;;;;26.70;99.90;;;;;;5114600;28;19919;-68
2022/06/18 11:58:55;;;;;;;;;;;26.70;99.90;;;;;;5113910;28;20269;-67
2022/06/18 12:01:32;;;;;;;;;;;26.50;99.90;;;;;;5113297;28;19923;-67
2022/06/18 12:04:03;;;;;;;;;;;26.50;99.90;;;;;;5114241;28;19959;-68
2022/06/18 12:06:39;;;;;;;;;;;26.70;99.90;;;;;;5114355;28;19965;-67
2022/06/18 12:09:05;;;;;;;;;;;26.90;99.90;;;;;;5114061;28;19924;-68
2022/06/18 12:11:45;;;;;;;;;;;26.90;99.90;;;;;;5114129;28;19969;-68
2022/06/18 12:14:13;;;;;;;;;;;26.90;99.90;;;;;;5114032;28;20414;-68
2022/06/18 12:16:47;;;;;;;;;;;26.90;99.90;;;;;;5114252;28;19927;-68
2022/06/18 12:19:24;;;;;;;;;;;27.10;99.90;;;;;;5113865;28;19967;-68
2022/06/18 12:22:23;;;;;;;;;;;27.20;99.90;;;;;;5113835;28;19923;-69
2022/06/18 12:25:06;;;;;;;;;;;27.30;99.90;;;;;;5029846;28;19925;-68
2022/06/18 12:27:37;;;;;;;;;;;27.20;99.90;;;;;;5030897;28;20505;-68
2022/06/18 12:30:25;;;;;;;;;;;27.00;99.90;;;;;;5030457;28;19931;-69
2022/06/18 12:33:00;;;;;;;;;;;27.10;99.90;;;;;;5030702;28;19929;-68
2022/06/18 12:35:35;;;;;;;;;;;27.30;99.90;;;;;;5030583;28;20641;-68
2022/06/18 12:38:03;;;;;;;;;;;26.90;99.90;;;;;;5030749;28;19929;-68
2022/06/18 12:40:33;;;;;;;;;;;26.90;99.90;;;;;;5030357;28;19921;-68
2022/06/18 12:43:05;;;;;;;;;;;27.20;99.90;;;;;;5030663;28;19921;-68
2022/06/18 12:45:33;;;;;;;;;;;27.40;99.90;;;;;;5030683;28;20353;-68
2022/06/18 12:48:01;;;;;;;;;;;27.50;99.90;;;;;;5030472;28;20385;-68
2022/06/18 12:50:35;;;;;;;;;;;27.50;99.90;;;;;;5030270;28;20429;-69
2022/06/18 12:53:06;;;;;;;;;;;27.20;99.90;;;;;;5030304;28;19932;-69
2022/06/18 12:55:32;;;;;;;;;;;27.30;99.90;;;;;;5030483;28;19921;-68
2022/06/18 12:58:13;;;;;;;;;;;27.50;99.90;;;;;;5030263;28;20309;-68
2022/06/18 13:00:43;;;;;;;;;;;27.70;99.90;;;;;;5080034;28;19924;-68
2022/06/18 13:03:20;;;;;;;;;;;27.70;99.90;;;;;;5113125;28;19927;-68
2022/06/18 13:05:47;;;;;;;;;;;27.40;99.90;;;;;;5113437;28;20256;-69
2022/06/18 13:08:16;;;;;;;;;;;27.90;99.90;;;;;;5113155;28;20061;-69
2022/06/18 13:10:48;;;;;;;;;;;27.50;99.90;;;;;;5112889;28;19920;-68
2022/06/18 13:13:33;;;;;;;;;;;27.60;99.90;;;;;;5112951;28;19931;-68
2022/06/18 13:16:08;;;;;;;;;;;27.70;99.90;;;;;;5112787;28;19973;-68
2022/06/18 13:18:40;;;;;;;;;;;27.70;99.90;;;;;;5112556;28;20447;-68
2022/06/18 13:21:07;;;;;;;;;;;27.70;99.90;;;;;;5111613;28;19920;-68
2022/06/18 13:29:15;;;;;;;;;;;27.90;99.90;;;;;;5112530;28;19924;-69
2022/06/18 13:32:03;;;;;;;;;;;27.80;99.90;;;;;;5112558;28;19924;-68
2022/06/18 13:35:07;;;;;;;;;;;27.60;99.90;;;;;;5112551;28;19942;-68
2022/06/18 13:37:42;;;;;;;;;;;27.50;99.90;;;;;;5029575;28;19963;-68
2022/06/18 13:40:14;;;;;;;;;;;27.10;99.90;;;;;;5029430;28;19960;-69
2022/06/18 13:42:50;;;;;;;;;;;27.00;99.90;;;;;;5029544;28;20503;-68
2022/06/18 13:45:34;;;;;;;;;;;27.30;99.90;;;;;;5029523;28;20792;-68
2022/06/18 13:48:09;;;;;;;;;;;27.30;99.90;;;;;;5029394;28;19932;-68
2022/06/18 13:50:41;;;;;;;;;;;27.30;99.90;;;;;;5029187;28;19932;-68
2022/06/18 13:53:07;;;;;;;;;;;27.00;99.90;;;;;;5029213;28;20374;-69
2022/06/18 13:55:37;;;;;;;;;;;26.90;99.90;;;;;;5029341;28;19925;-68
2022/06/18 13:58:06;;;;;;;;;;;26.80;99.90;;;;;;5029242;28;20341;-68
2022/06/18 14:00:33;;;;;;;;;;;26.60;99.90;;;;;;5029081;28;20377;-68
2022/06/18 14:03:06;;;;;;;;;;;26.60;99.90;;;;;;5012936;28;20297;-68
2022/06/18 14:05:45;;;;;;;;;;;26.60;99.90;;;;;;5029134;28;20445;-68
2022/06/18 14:08:26;;;;;;;;;;;26.60;99.90;;;;;;5066249;28;19924;-69
2022/06/18 14:10:53;;;;;;;;;;;26.60;99.90;;;;;;5112225;28;19920;-68
2022/06/18 14:13:21;;;;;;;;;;;26.50;99.90;;;;;;5111942;28;19965;-69
2022/06/18 14:15:51;;;;;;;;;;;26.30;99.90;;;;;;5111973;28;19920;-68
2022/06/18 14:18:19;;;;;;;;;;;26.20;99.90;;;;;;5111760;28;19919;-68
2022/06/18 14:20:53;;;;;;;;;;;26.30;99.90;;;;;;5112025;28;20305;-67
2022/06/18 14:23:36;;;;;;;;;;;26.30;99.90;;;;;;5112024;28;19920;-68
2022/06/18 14:26:12;;;;;;;;;;;26.30;99.90;;;;;;5112016;28;19961;-68
2022/06/18 14:28:42;;;;;;;;;;;26.10;99.90;;;;;;5111534;28;20015;-69
2022/06/18 14:31:11;;;;;;;;;;;25.90;99.90;;;;;;5111906;28;19920;-68
2022/06/18 14:33:42;;;;;;;;;;;25.90;99.90;;;;;;5111720;28;20107;-68
2022/06/18 14:36:21;;;;;;;;;;;25.90;99.90;;;;;;5111801;28;20406;-68
2022/06/18 14:38:48;;;;;;;;;;;25.90;99.90;;;;;;5111370;28;20486;-68
2022/06/18 14:43:59;;;;;;;;;;;25.50;99.90;;;;;;5111503;28;19973;-68
2022/06/18 14:46:43;;;;;;;;;;;25.50;99.90;;;;;;5111817;28;19971;-68
2022/06/18 14:49:20;;;;;;;;;;;25.40;99.90;;;;;;5114219;28;20265;-68